Roseville, CA

9:35 AM PDT on September 20, 2014 (GMT -0700)
Steeple Chase | Change Station
CLOSE
Current Station
Personal Weather Station
Location: Folsom, CA
Elevation: 292 ft
Nearby Weather Stations

Elev 292 ft 38.66 °N, 121.16 °W | Updated 1 minute ago

Partly Cloudy
Partly Cloudy
69.9 °F
Feels Like 69.9 °F
N
1.0
Wind Variable Wind from SSE
Gusts 4.0 mph

Today
High -- | Low -- °F
--% Chance of Precip.
Yesterday
High -- | Low -- °F
Precip. -- in
6:50 AM 7:04 PM
Waning Crescent, 11% visible
Pressure 29.90 in
Visibility 10.0 miles
Clouds Clear
Dew Point 60 °F
Humidity 70%
Rainfall 0.00 in
Snow Depth 0 in , 1 in , 1 in
UV 2 out of 12
Pollen 5.60 out of 12
Ozone Good
PM2.5 Very Unhealthy
Flu Activity Not available.
METAR KLHM 201615Z AUTO 00000KT 10SM CLR 20/13 A2990 RMK AO1

More Conditions Fewer Conditions

Pressure 29.90 in
Visibility 10.0 miles
Clouds Clear
Dew Point 60 °F
Humidity 70%
Rainfall 0.00 in
Snow Depth 0 in , 1 in , 1 in
UV 2 out of 12
Pollen 5.60 out of 12
Ozone Good
PM2.5 Very Unhealthy
Flu Activity Not available.
METAR KLHM 201615Z AUTO 00000KT 10SM CLR 20/13 A2990 RMK AO1

More Conditions Fewer Conditions

10-Day Weather Forecast

Almanac

Astronomy

Sep. 20, 2014 Rise Set
Actual Time 6:50 AM PDT 7:04 PM PDT
Civil Twilight 6:24 AM PDT 7:31 PM PDT
Nautical Twilight 5:52 AM PDT 8:02 PM PDT
Astronomical Twilight 5:21 AM PDT 8:33 PM PDT
Moon 3:36 AM PDT 5:09 PM PDT
Length of Visible Light 13h 07m
Length of Day
12h 14m
Tomorrow will be 2m 29s shorter.
Waning Crescent, 11% of the Moon is Illuminated
Today
Waning Crescent
Sep 24
New
Oct 1
First Quarter
Oct 8
Full
Oct 15
Last Quarter

Today's Extremes

State Highs State Lows

Community

WunderPhotos

Upload Photos

1,754,892 photos uploaded!

Nearby

Air Quality

  Air Quality AQ Index Pollutant
Yesterday Unhealthy for Sensitive Groups
PM2.5
Yesterday Good
OZONE
Current Very Unhealthy
PM2.5
Current Good
OZONE
Saturday Moderate
OZONE
Sunday Moderate
OZONE
Monday Moderate
OZONE
Tuesday Moderate
OZONE
Wednesday Moderate
OZONE

Snow Depth

Station Depth Elevation
Leavitt Lake 0 in 9400 ft
Summit Meadow 1 in 9122 ft
Ebbetts Pass 0 in 8700 ft
Spratt Creek 1 in 6200 ft
Tahoe City Cross 0 in 6750 ft

Earthquake Activity

City Distance Mag. Time & Date
Livermore, California 79 miles 2.6 3:37 AM PDT
2014-09-19
The Geysers, California 82 miles 2.5 11:29 PM PDT
2014-09-17
Minimum magnitude displayed is 2.5.

Coastal Water Temperatures

Place Temperature
No Stations Reporting

Nearby Weather Stations